Time;durP1;ratioP1;P1;durP2;ratioP2;P2;SDS_P1;SDS_P2;PMS_P1;PMS_P2;Temp;Humidity;BMP_temperature;BMP_pressure;BME280_temperature;BME280_humidity;BME280_pressure;Samples;Min_cycle;Max_cycle;Signal;HPM_P1;HPM_P2
2023/03/07 00:01:36;;;;;;;6.80;3.47;;;;;;;;;;5021737;28;20044;-71
2023/03/07 00:04:03;;;;;;;6.43;3.30;;;;;;;;;;5032307;28;20022;-70
2023/03/07 00:06:29;;;;;;;7.10;3.65;;;;;;;;;;5020890;28;20052;-70
2023/03/07 00:08:57;;;;;;;4.93;3.33;;;;;;;;;;5014193;28;20041;-70
2023/03/07 00:11:24;;;;;;;6.28;3.60;;;;;;;;;;5028140;28;20066;-70
2023/03/07 00:13:50;;;;;;;8.13;3.92;;;;;;;;;;5014447;28;20030;-70
2023/03/07 00:16:18;;;;;;;6.68;4.00;;;;;;;;;;5014724;28;20038;-71
2023/03/07 00:18:44;;;;;;;15.70;5.88;;;;;;;;;;5026378;28;20460;-70
2023/03/07 00:21:13;;;;;;;14.32;6.05;;;;;;;;;;5009507;28;20081;-70
2023/03/07 00:23:41;;;;;;;10.95;5.70;;;;;;;;;;5013818;28;20024;-69
2023/03/07 00:26:11;;;;;;;8.77;4.60;;;;;;;;;;5000238;28;20037;-70
2023/03/07 00:28:39;;;;;;;6.65;3.85;;;;;;;;;;5013328;28;20037;-71
2023/03/07 00:31:07;;;;;;;6.50;3.47;;;;;;;;;;4996208;28;20032;-70
2023/03/07 00:33:33;;;;;;;5.20;3.50;;;;;;;;;;5013337;28;20403;-71
2023/03/07 00:36:09;;;;;;;7.15;4.00;;;;;;;;;;5012706;28;20491;-70
2023/03/07 00:38:35;;;;;;;9.10;3.90;;;;;;;;;;4979745;28;20580;-70
2023/03/07 00:41:03;;;;;;;10.07;4.97;;;;;;;;;;5013752;28;20096;-69
2023/03/07 00:43:30;;;;;;;11.00;4.97;;;;;;;;;;4995860;28;20055;-70
2023/03/07 00:45:56;;;;;;;13.43;5.32;;;;;;;;;;4991756;28;20026;-70
2023/03/07 00:48:22;;;;;;;11.65;4.75;;;;;;;;;;5023833;28;20030;-70
2023/03/07 00:50:48;;;;;;;10.82;4.78;;;;;;;;;;5010738;28;20040;-70
2023/03/07 00:53:15;;;;;;;9.50;5.18;;;;;;;;;;5012674;28;20030;-70
2023/03/07 00:55:41;;;;;;;10.13;4.75;;;;;;;;;;5011945;28;20709;-70
2023/03/07 00:58:07;;;;;;;8.18;4.18;;;;;;;;;;4994801;28;20030;-70
2023/03/07 01:00:33;;;;;;;13.32;5.75;;;;;;;;;;4994867;28;20467;-70
2023/03/07 01:03:00;;;;;;;10.40;4.30;;;;;;;;;;4993660;28;20041;-70
2023/03/07 01:05:27;;;;;;;8.93;3.45;;;;;;;;;;4994175;28;20032;-70
2023/03/07 01:07:53;;;;;;;7.72;3.58;;;;;;;;;;4994100;28;20199;-69
2023/03/07 01:10:19;;;;;;;5.00;3.15;;;;;;;;;;5022346;28;20113;-69
2023/03/07 01:12:45;;;;;;;5.40;3.30;;;;;;;;;;4997223;28;20395;-70
2023/03/07 01:15:11;;;;;;;11.38;6.30;;;;;;;;;;5012855;28;20038;-70
2023/03/07 01:17:37;;;;;;;12.48;6.57;;;;;;;;;;5015169;28;20028;-70
2023/03/07 01:20:08;;;;;;;8.82;6.00;;;;;;;;;;4994421;28;20030;-70
2023/03/07 01:22:34;;;;;;;10.88;6.68;;;;;;;;;;4993800;28;20117;-70
2023/03/07 01:25:00;;;;;;;11.52;6.20;;;;;;;;;;4994052;28;20108;-70
2023/03/07 01:27:26;;;;;;;12.70;6.20;;;;;;;;;;5012082;28;20046;-70
2023/03/07 01:29:51;;;;;;;10.45;6.40;;;;;;;;;;4995384;28;20032;-70
2023/03/07 01:32:17;;;;;;;12.35;7.28;;;;;;;;;;4995519;28;20065;-69
2023/03/07 01:34:43;;;;;;;11.82;6.85;;;;;;;;;;5013001;28;20077;-70
2023/03/07 01:37:09;;;;;;;14.27;7.63;;;;;;;;;;5011489;28;20029;-70
2023/03/07 01:39:35;;;;;;;11.85;6.78;;;;;;;;;;4995409;28;20026;-70
2023/03/07 01:42:05;;;;;;;14.07;6.55;;;;;;;;;;4995478;28;20033;-70
2023/03/07 01:44:56;;;;;;;12.20;6.88;;;;;;;;;;4995515;28;20037;-69
2023/03/07 01:47:22;;;;;;;9.43;6.13;;;;;;;;;;5011078;28;20501;-70
2023/03/07 01:49:52;;;;;;;13.35;5.95;;;;;;;;;;4981700;28;20080;-69
2023/03/07 01:52:26;;;;;;;10.77;6.68;;;;;;;;;;4997815;28;20415;-70
2023/03/07 01:55:00;;;;;;;9.20;5.45;;;;;;;;;;4998297;28;20040;-70
2023/03/07 01:57:32;;;;;;;14.85;6.15;;;;;;;;;;4993904;28;20061;-70
2023/03/07 02:00:04;;;;;;;8.40;5.47;;;;;;;;;;5007712;28;20133;-70
2023/03/07 02:02:41;;;;;;;7.43;5.45;;;;;;;;;;5016820;28;20030;-70
2023/03/07 02:05:32;;;;;;;7.43;5.00;;;;;;;;;;5013924;28;20037;-70
2023/03/07 02:08:00;;;;;;;11.00;5.80;;;;;;;;;;5005420;28;20038;-70
2023/03/07 02:10:30;;;;;;;9.82;5.80;;;;;;;;;;4991064;28;20018;-70
2023/03/07 02:12:56;;;;;;;9.73;6.05;;;;;;;;;;5012061;28;20034;-70
2023/03/07 02:15:22;;;;;;;8.88;5.85;;;;;;;;;;4997048;28;20475;-70
2023/03/07 02:17:48;;;;;;;11.63;6.70;;;;;;;;;;5031014;28;20072;-70
2023/03/07 02:20:28;;;;;;;11.30;6.53;;;;;;;;;;5013380;28;20120;-70
2023/03/07 02:22:54;;;;;;;9.98;6.22;;;;;;;;;;5031365;28;20053;-70
2023/03/07 02:25:54;;;;;;;13.50;6.68;;;;;;;;;;5028698;28;20103;-70
2023/03/07 02:28:21;;;;;;;9.73;5.88;;;;;;;;;;5010777;28;20034;-71
2023/03/07 02:30:55;;;;;;;9.63;5.90;;;;;;;;;;4994128;28;20121;-70
2023/03/07 02:33:23;;;;;;;9.05;6.22;;;;;;;;;;5011608;28;20040;-70
2023/03/07 02:36:08;;;;;;;9.13;5.72;;;;;;;;;;5010160;28;20030;-70
2023/03/07 02:38:39;;;;;;;10.00;5.85;;;;;;;;;;4995888;28;20112;-70
2023/03/07 02:41:07;;;;;;;10.15;6.22;;;;;;;;;;5029719;28;20044;-70
2023/03/07 02:43:34;;;;;;;10.25;6.43;;;;;;;;;;5013326;28;20125;-70
2023/03/07 02:46:01;;;;;;;12.07;6.85;;;;;;;;;;5030144;28;20041;-70
2023/03/07 02:48:27;;;;;;;14.90;7.10;;;;;;;;;;5012623;28;20022;-70
2023/03/07 02:50:53;;;;;;;10.55;5.85;;;;;;;;;;5012232;28;20033;-70
2023/03/07 02:53:18;;;;;;;10.52;6.32;;;;;;;;;;5030796;28;20049;-70
2023/03/07 02:55:44;;;;;;;9.95;6.10;;;;;;;;;;5011662;28;20519;-70
2023/03/07 02:58:10;;;;;;;8.75;5.35;;;;;;;;;;4993186;28;20080;-70
2023/03/07 03:00:36;;;;;;;10.85;5.63;;;;;;;;;;4993674;28;20050;-70
2023/03/07 03:03:02;;;;;;;9.63;4.57;;;;;;;;;;4994688;28;20505;-71
2023/03/07 03:05:28;;;;;;;8.00;5.28;;;;;;;;;;5012642;28;20049;-70
2023/03/07 03:07:54;;;;;;;10.20;6.32;;;;;;;;;;5010608;28;20352;-70
2023/03/07 03:10:21;;;;;;;12.20;6.85;;;;;;;;;;4993244;28;20044;-70
2023/03/07 03:12:47;;;;;;;10.65;6.80;;;;;;;;;;4993524;28;20391;-70
2023/03/07 03:15:14;;;;;;;11.27;6.25;;;;;;;;;;4999632;28;20030;-70
2023/03/07 03:17:40;;;;;;;11.80;6.28;;;;;;;;;;4997037;28;20037;-70
2023/03/07 03:20:07;;;;;;;9.40;6.32;;;;;;;;;;4992939;28;20558;-69
2023/03/07 03:22:34;;;;;;;8.70;4.80;;;;;;;;;;5017169;28;20017;-70
2023/03/07 03:25:03;;;;;;;7.57;4.72;;;;;;;;;;5004879;28;20030;-70
2023/03/07 03:27:31;;;;;;;6.88;4.13;;;;;;;;;;4996795;28;20030;-70
2023/03/07 03:29:57;;;;;;;7.03;3.90;;;;;;;;;;4997478;28;20505;-70
2023/03/07 03:32:23;;;;;;;8.10;4.47;;;;;;;;;;4996863;28;20128;-70
2023/03/07 03:34:49;;;;;;;7.13;4.28;;;;;;;;;;5002024;28;20445;-71
2023/03/07 03:37:15;;;;;;;8.15;4.20;;;;;;;;;;4996798;28;20051;-71
2023/03/07 03:39:41;;;;;;;8.00;4.03;;;;;;;;;;4998399;28;20044;-71
2023/03/07 03:42:07;;;;;;;12.65;4.78;;;;;;;;;;4995948;28;20033;-71
2023/03/07 03:44:33;;;;;;;12.00;4.70;;;;;;;;;;5014025;28;20044;-71
2023/03/07 03:46:59;;;;;;;13.75;5.38;;;;;;;;;;4995116;28;20535;-70
2023/03/07 03:49:25;;;;;;;7.97;4.32;;;;;;;;;;4996970;28;20037;-70
2023/03/07 03:51:52;;;;;;;9.05;5.03;;;;;;;;;;4995847;28;20022;-70
2023/03/07 03:54:18;;;;;;;9.65;5.10;;;;;;;;;;4996002;28;20049;-69
2023/03/07 03:56:44;;;;;;;8.10;4.20;;;;;;;;;;4995006;28;20030;-70
2023/03/07 03:59:09;;;;;;;8.57;4.25;;;;;;;;;;4998934;28;20029;-71
2023/03/07 04:01:35;;;;;;;6.30;3.85;;;;;;;;;;5012365;28;20108;-70
2023/03/07 04:04:01;;;;;;;10.95;4.15;;;;;;;;;;5011992;28;20505;-70
2023/03/07 04:06:29;;;;;;;7.40;4.45;;;;;;;;;;4995690;28;20029;-71
2023/03/07 04:08:56;;;;;;;13.35;5.20;;;;;;;;;;4995350;28;20155;-71
2023/03/07 04:11:23;;;;;;;9.15;5.20;;;;;;;;;;4997456;28;20479;-71
2023/03/07 04:13:49;;;;;;;12.43;5.45;;;;;;;;;;4995777;28;20727;-71
2023/03/07 04:16:16;;;;;;;12.90;7.00;;;;;;;;;;5015433;28;20022;-70
2023/03/07 04:18:42;;;;;;;19.33;8.55;;;;;;;;;;4995105;28;20061;-70
2023/03/07 04:21:11;;;;;;;13.07;7.25;;;;;;;;;;4996664;28;20049;-70
2023/03/07 04:23:38;;;;;;;21.20;8.38;;;;;;;;;;5025649;28;20454;-70
2023/03/07 04:26:07;;;;;;;15.60;8.30;;;;;;;;;;4995417;28;20065;-70
2023/03/07 04:28:44;;;;;;;15.30;8.15;;;;;;;;;;4994797;28;20121;-70
2023/03/07 04:31:22;;;;;;;12.65;6.63;;;;;;;;;;5014077;28;20038;-70
2023/03/07 04:33:50;;;;;;;13.90;7.65;;;;;;;;;;5012696;28;20033;-70
2023/03/07 04:36:16;;;;;;;11.50;6.80;;;;;;;;;;4995895;28;20025;-70
2023/03/07 04:38:44;;;;;;;19.08;8.52;;;;;;;;;;4994484;28;20030;-70
2023/03/07 04:41:22;;;;;;;13.40;6.65;;;;;;;;;;4995582;28;20129;-70
2023/03/07 04:43:52;;;;;;;15.23;7.10;;;;;;;;;;5012259;28;20146;-70
2023/03/07 04:46:18;;;;;;;14.57;8.18;;;;;;;;;;5010874;28;20460;-70
2023/03/07 04:48:45;;;;;;;11.98;7.20;;;;;;;;;;4993578;28;20428;-70
2023/03/07 04:51:12;;;;;;;16.50;8.13;;;;;;;;;;5011958;28;20042;-68
2023/03/07 04:53:38;;;;;;;11.95;7.88;;;;;;;;;;4993098;28;20033;-70
2023/03/07 04:56:07;;;;;;;13.10;6.57;;;;;;;;;;5013343;28;20033;-70
2023/03/07 04:58:33;;;;;;;13.10;7.78;;;;;;;;;;4979464;28;20026;-69
2023/03/07 05:01:01;;;;;;;18.00;8.48;;;;;;;;;;4994143;28;20026;-70
2023/03/07 05:03:28;;;;;;;12.68;8.30;;;;;;;;;;5011798;28;20028;-70
2023/03/07 05:05:54;;;;;;;30.17;9.88;;;;;;;;;;5010685;28;20041;-71
2023/03/07 05:08:21;;;;;;;33.75;9.85;;;;;;;;;;5029070;28;20022;-69
2023/03/07 05:10:46;;;;;;;19.75;9.05;;;;;;;;;;5011503;28;20127;-68
2023/03/07 05:13:12;;;;;;;22.38;8.90;;;;;;;;;;4994648;28;20033;-70
2023/03/07 05:15:39;;;;;;;21.00;9.68;;;;;;;;;;5011273;28;20037;-69
2023/03/07 05:18:05;;;;;;;23.17;9.55;;;;;;;;;;5012787;28;20018;-70
2023/03/07 05:20:32;;;;;;;21.38;8.77;;;;;;;;;;5012386;28;20037;-69
2023/03/07 05:22:58;;;;;;;28.60;9.48;;;;;;;;;;5013169;28;20029;-70
2023/03/07 05:25:24;;;;;;;13.73;8.57;;;;;;;;;;4992425;28;20448;-70
2023/03/07 05:27:50;;;;;;;18.08;8.73;;;;;;;;;;4994487;28;20026;-71
2023/03/07 05:30:17;;;;;;;24.45;9.00;;;;;;;;;;5010713;28;20041;-70
2023/03/07 05:32:42;;;;;;;20.00;9.38;;;;;;;;;;5012086;28;20028;-70
2023/03/07 05:35:11;;;;;;;23.08;8.35;;;;;;;;;;5010467;28;20029;-70
2023/03/07 05:37:38;;;;;;;19.38;8.43;;;;;;;;;;4979940;28;20018;-70
2023/03/07 05:40:14;;;;;;;16.98;8.13;;;;;;;;;;5008179;28;20040;-71
2023/03/07 05:42:44;;;;;;;17.13;7.97;;;;;;;;;;4980419;28;20463;-70
2023/03/07 05:45:11;;;;;;;14.07;7.50;;;;;;;;;;4993241;28;20025;-70
2023/03/07 05:47:37;;;;;;;33.05;9.80;;;;;;;;;;4993787;28;20033;-71
2023/03/07 05:50:07;;;;;;;16.30;8.80;;;;;;;;;;4994056;28;20025;-70
2023/03/07 05:52:32;;;;;;;22.25;8.95;;;;;;;;;;4993758;28;20291;-70
2023/03/07 05:54:58;;;;;;;14.80;7.63;;;;;;;;;;5011292;28;20017;-69
2023/03/07 05:57:24;;;;;;;29.42;8.77;;;;;;;;;;4993607;28;20030;-70
2023/03/07 05:59:50;;;;;;;17.08;8.35;;;;;;;;;;4993639;28;20018;-70
2023/03/07 06:02:16;;;;;;;19.50;8.30;;;;;;;;;;4993545;28;20469;-70
2023/03/07 06:04:41;;;;;;;17.52;7.97;;;;;;;;;;4993618;28;20053;-70
2023/03/07 06:07:07;;;;;;;20.98;7.30;;;;;;;;;;4976882;28;20029;-70
2023/03/07 06:09:33;;;;;;;25.33;7.80;;;;;;;;;;4992823;28;20037;-70
2023/03/07 06:12:00;;;;;;;18.42;6.93;;;;;;;;;;4993348;28;20048;-70
2023/03/07 06:14:26;;;;;;;22.77;9.98;;;;;;;;;;4993464;28;20018;-70
2023/03/07 06:16:52;;;;;;;23.35;8.50;;;;;;;;;;5008855;28;20045;-71
2023/03/07 06:19:17;;;;;;;24.13;8.25;;;;;;;;;;4992505;28;20018;-70
2023/03/07 06:21:44;;;;;;;14.40;7.70;;;;;;;;;;4992997;28;20037;-71
2023/03/07 06:24:09;;;;;;;23.65;9.52;;;;;;;;;;4992445;28;20072;-71
2023/03/07 06:26:35;;;;;;;22.38;7.70;;;;;;;;;;4993003;28;20124;-70
2023/03/07 06:29:02;;;;;;;21.75;9.20;;;;;;;;;;4992791;28;20126;-70
2023/03/07 06:31:30;;;;;;;18.38;7.93;;;;;;;;;;5024218;28;20096;-70
2023/03/07 06:33:56;;;;;;;14.43;7.30;;;;;;;;;;4995410;28;20407;-71
2023/03/07 06:36:22;;;;;;;14.68;7.32;;;;;;;;;;5010932;28;20075;-71
2023/03/07 06:38:57;;;;;;;22.38;9.00;;;;;;;;;;4992748;28;20092;-70
2023/03/07 06:41:25;;;;;;;26.38;9.73;;;;;;;;;;4977704;28;20116;-72
2023/03/07 06:43:52;;;;;;;20.75;9.90;;;;;;;;;;5010194;28;20029;-72
2023/03/07 06:46:23;;;;;;;22.70;9.65;;;;;;;;;;4989168;28;20037;-72
2023/03/07 06:48:50;;;;;;;19.77;9.10;;;;;;;;;;5008371;28;20034;-72
2023/03/07 06:51:18;;;;;;;24.20;8.15;;;;;;;;;;4990882;28;20033;-72
2023/03/07 06:53:46;;;;;;;24.15;10.60;;;;;;;;;;4991658;28;21393;-72
2023/03/07 06:56:12;;;;;;;23.42;8.77;;;;;;;;;;5005814;28;20117;-71
2023/03/07 06:58:39;;;;;;;20.35;8.40;;;;;;;;;;4993184;28;20322;-71
2023/03/07 07:01:06;;;;;;;24.25;8.90;;;;;;;;;;4993249;28;20029;-71
2023/03/07 07:03:34;;;;;;;24.13;8.38;;;;;;;;;;5001886;28;20032;-72
2023/03/07 07:06:02;;;;;;;18.40;7.93;;;;;;;;;;5010575;28;20440;-71
2023/03/07 07:08:29;;;;;;;14.10;7.82;;;;;;;;;;4994752;28;20030;-72
2023/03/07 07:10:58;;;;;;;14.77;8.32;;;;;;;;;;4981862;28;20070;-71
2023/03/07 07:13:25;;;;;;;12.25;7.88;;;;;;;;;;4992517;28;20414;-71
2023/03/07 07:15:52;;;;;;;18.40;8.70;;;;;;;;;;4991587;28;20021;-71
2023/03/07 07:18:18;;;;;;;15.10;7.97;;;;;;;;;;5006322;28;20030;-70
2023/03/07 07:20:43;;;;;;;11.85;7.35;;;;;;;;;;5010053;28;20490;-72
2023/03/07 07:23:09;;;;;;;16.77;9.05;;;;;;;;;;4992565;28;20037;-72
2023/03/07 07:25:37;;;;;;;15.40;8.52;;;;;;;;;;4992891;28;20476;-71
2023/03/07 07:28:03;;;;;;;14.30;8.18;;;;;;;;;;5000491;28;20026;-72
2023/03/07 07:30:29;;;;;;;13.32;8.50;;;;;;;;;;4992540;28;20053;-72
2023/03/07 07:32:55;;;;;;;16.00;7.47;;;;;;;;;;4992424;28;20067;-72
2023/03/07 07:35:21;;;;;;;12.85;7.13;;;;;;;;;;5007273;28;20025;-71
2023/03/07 07:37:47;;;;;;;10.68;7.40;;;;;;;;;;4990273;28;20052;-73
2023/03/07 07:40:14;;;;;;;13.57;7.60;;;;;;;;;;4990547;28;20026;-73
2023/03/07 07:42:42;;;;;;;10.23;6.13;;;;;;;;;;5006813;28;20038;-72
2023/03/07 07:45:24;;;;;;;14.15;6.63;;;;;;;;;;4990598;28;20057;-73
2023/03/07 07:47:51;;;;;;;12.80;6.00;;;;;;;;;;4993992;28;20104;-73
2023/03/07 07:50:19;;;;;;;8.85;5.60;;;;;;;;;;4991606;28;20500;-73
2023/03/07 07:52:45;;;;;;;15.52;6.55;;;;;;;;;;5009547;28;20034;-71
2023/03/07 07:55:13;;;;;;;13.45;6.15;;;;;;;;;;4987601;28;20505;-72
2023/03/07 07:57:40;;;;;;;11.65;5.70;;;;;;;;;;5009440;28;20025;-73
2023/03/07 08:00:09;;;;;;;10.13;5.65;;;;;;;;;;4993268;28;20112;-72
2023/03/07 08:02:37;;;;;;;12.00;5.90;;;;;;;;;;5012964;28;20041;-71
2023/03/07 08:05:06;;;;;;;9.38;5.53;;;;;;;;;;4995493;28;20042;-72
2023/03/07 08:07:32;;;;;;;7.53;5.13;;;;;;;;;;4978555;28;20030;-72
2023/03/07 08:09:58;;;;;;;5.82;3.88;;;;;;;;;;5014282;28;20033;-72
2023/03/07 08:12:24;;;;;;;13.18;5.05;;;;;;;;;;5016640;28;20041;-70
2023/03/07 08:14:49;;;;;;;9.90;4.50;;;;;;;;;;5009433;28;20290;-71
2023/03/07 08:17:15;;;;;;;6.22;3.25;;;;;;;;;;5018664;28;20516;-70
2023/03/07 08:19:41;;;;;;;8.98;3.70;;;;;;;;;;5014070;28;20400;-71
2023/03/07 08:22:06;;;;;;;5.90;3.95;;;;;;;;;;5010452;28;20040;-71
2023/03/07 08:24:34;;;;;;;21.58;4.60;;;;;;;;;;4976548;28;20061;-71
2023/03/07 08:27:01;;;;;;;17.38;4.82;;;;;;;;;;5012661;28;20029;-72
2023/03/07 08:29:26;;;;;;;8.65;4.10;;;;;;;;;;5012282;28;20021;-71
2023/03/07 08:31:53;;;;;;;11.32;4.05;;;;;;;;;;5013503;28;20042;-72
2023/03/07 08:34:19;;;;;;;7.20;3.95;;;;;;;;;;5010412;28;20077;-71
2023/03/07 08:36:46;;;;;;;5.43;3.35;;;;;;;;;;4993037;28;20042;-71
2023/03/07 08:39:12;;;;;;;7.38;2.63;;;;;;;;;;5020719;28;20045;-70
2023/03/07 08:41:38;;;;;;;4.32;2.88;;;;;;;;;;5015663;28;20030;-70
2023/03/07 08:44:04;;;;;;;6.63;2.22;;;;;;;;;;5001395;28;20488;-71
2023/03/07 08:46:29;;;;;;;6.50;2.72;;;;;;;;;;5013525;28;20034;-72
2023/03/07 08:48:55;;;;;;;3.05;1.70;;;;;;;;;;4979786;28;20160;-72
2023/03/07 08:51:21;;;;;;;5.97;1.80;;;;;;;;;;5006594;28;20040;-70
2023/03/07 08:53:47;;;;;;;2.85;2.10;;;;;;;;;;5013267;28;20472;-70
2023/03/07 08:56:16;;;;;;;4.93;1.70;;;;;;;;;;5015614;28;20456;-70
2023/03/07 08:58:42;;;;;;;5.00;1.77;;;;;;;;;;5003338;28;20120;-71
2023/03/07 09:01:09;;;;;;;3.75;1.98;;;;;;;;;;5012986;28;20030;-70
2023/03/07 09:03:35;;;;;;;6.70;2.45;;;;;;;;;;5013205;28;20030;-70
2023/03/07 09:06:02;;;;;;;4.05;1.17;;;;;;;;;;4992242;28;20147;-70
2023/03/07 09:08:28;;;;;;;3.80;1.58;;;;;;;;;;4993240;28;20492;-70
2023/03/07 09:10:54;;;;;;;3.30;1.75;;;;;;;;;;4993212;28;20049;-71
2023/03/07 09:13:20;;;;;;;5.20;1.50;;;;;;;;;;5011651;28;20099;-70
2023/03/07 09:15:46;;;;;;;4.55;1.90;;;;;;;;;;5010517;28;20120;-69
2023/03/07 09:18:11;;;;;;;2.30;0.75;;;;;;;;;;5009436;28;20046;-70
2023/03/07 09:20:37;;;;;;;2.20;0.80;;;;;;;;;;5012563;28;20034;-70
2023/03/07 09:23:04;;;;;;;6.93;1.20;;;;;;;;;;4995057;28;20470;-70
2023/03/07 09:25:30;;;;;;;4.60;1.70;;;;;;;;;;5019634;28;20512;-70
2023/03/07 09:27:55;;;;;;;1.88;1.00;;;;;;;;;;4994877;28;20106;-70
2023/03/07 09:30:21;;;;;;;8.98;2.20;;;;;;;;;;5012139;28;20420;-71
2023/03/07 09:32:51;;;;;;;3.50;1.63;;;;;;;;;;5019442;28;20035;-70
2023/03/07 09:35:17;;;;;;;5.95;1.85;;;;;;;;;;5011996;28;20468;-70
2023/03/07 09:37:43;;;;;;;4.93;1.13;;;;;;;;;;5012444;28;20459;-71
2023/03/07 09:40:16;;;;;;;1.85;0.90;;;;;;;;;;5010929;28;20037;-72
2023/03/07 09:42:52;;;;;;;1.92;0.90;;;;;;;;;;5012670;28;20357;-71
2023/03/07 09:45:20;;;;;;;1.80;0.60;;;;;;;;;;5019494;28;20029;-71
2023/03/07 09:48:04;;;;;;;1.67;0.80;;;;;;;;;;4994606;28;20488;-70
2023/03/07 09:50:56;;;;;;;1.58;0.80;;;;;;;;;;5024621;28;20041;-71
2023/03/07 09:54:02;;;;;;;4.50;1.17;;;;;;;;;;4994632;28;20155;-71
2023/03/07 09:56:54;;;;;;;3.63;1.40;;;;;;;;;;5009062;28;20089;-71
2023/03/07 09:59:31;;;;;;;3.75;1.90;;;;;;;;;;5012485;28;20034;-70
2023/03/07 10:02:11;;;;;;;3.30;1.40;;;;;;;;;;4993146;28;20554;-71
2023/03/07 10:04:56;;;;;;;3.53;1.60;;;;;;;;;;5006786;28;20101;-70
2023/03/07 10:07:24;;;;;;;2.05;0.93;;;;;;;;;;5010920;28;20113;-72
2023/03/07 10:09:58;;;;;;;3.25;1.50;;;;;;;;;;5012272;28;20026;-71
2023/03/07 10:12:24;;;;;;;4.63;1.40;;;;;;;;;;5010609;28;20069;-70
2023/03/07 10:15:03;;;;;;;3.08;1.95;;;;;;;;;;5004442;28;20529;-70
2023/03/07 10:17:53;;;;;;;1.40;0.82;;;;;;;;;;5010057;28;20037;-70
2023/03/07 10:20:50;;;;;;;5.30;2.30;;;;;;;;;;5011082;28;20025;-70
2023/03/07 10:23:53;;;;;;;2.88;1.73;;;;;;;;;;5010438;28;20034;-72
2023/03/07 10:26:27;;;;;;;2.25;1.60;;;;;;;;;;5009947;28;20470;-72
2023/03/07 10:28:56;;;;;;;4.50;1.20;;;;;;;;;;4991907;28;20065;-70
2023/03/07 10:31:33;;;;;;;1.30;0.70;;;;;;;;;;5006088;28;20080;-71
2023/03/07 10:34:13;;;;;;;8.30;1.38;;;;;;;;;;5010690;28;20046;-70
2023/03/07 10:36:45;;;;;;;3.88;0.98;;;;;;;;;;4992133;28;20042;-70
2023/03/07 10:39:51;;;;;;;2.50;0.95;;;;;;;;;;5011443;28;20046;-71
2023/03/07 10:42:19;;;;;;;2.00;1.38;;;;;;;;;;4969616;28;20045;-71
2023/03/07 10:44:47;;;;;;;3.25;1.30;;;;;;;;;;4989818;28;20547;-71
2023/03/07 10:47:25;;;;;;;3.22;1.52;;;;;;;;;;5010565;28;20452;-71
2023/03/07 10:50:05;;;;;;;7.38;1.13;;;;;;;;;;5011155;28;20034;-70
2023/03/07 10:52:40;;;;;;;6.63;1.50;;;;;;;;;;5005596;28;20030;-70
2023/03/07 10:55:32;;;;;;;5.50;1.20;;;;;;;;;;5011582;28;20045;-71
2023/03/07 10:58:28;;;;;;;2.93;1.20;;;;;;;;;;5006290;28;20089;-70
2023/03/07 11:01:06;;;;;;;8.23;1.90;;;;;;;;;;4992940;28;20165;-70
2023/03/07 11:03:44;;;;;;;1.50;0.73;;;;;;;;;;5004816;28;20136;-70
2023/03/07 11:06:40;;;;;;;3.08;0.90;;;;;;;;;;5011129;28;20037;-69
2023/03/07 11:09:30;;;;;;;3.38;0.70;;;;;;;;;;4990673;28;20049;-70
2023/03/07 11:12:11;;;;;;;1.35;0.60;;;;;;;;;;5010844;28;20147;-70
2023/03/07 11:14:50;;;;;;;3.45;1.33;;;;;;;;;;5005339;28;20044;-72
2023/03/07 11:17:29;;;;;;;3.85;1.67;;;;;;;;;;4997777;28;20106;-72
2023/03/07 11:19:58;;;;;;;3.97;1.08;;;;;;;;;;4992008;28;20042;-72
2023/03/07 11:22:35;;;;;;;3.05;1.58;;;;;;;;;;5007741;28;20033;-70
2023/03/07 11:25:07;;;;;;;5.47;1.60;;;;;;;;;;4993976;28;20042;-70
2023/03/07 11:27:39;;;;;;;3.60;1.40;;;;;;;;;;5011155;28;20042;-71
2023/03/07 11:30:16;;;;;;;3.17;1.42;;;;;;;;;;5008913;28;20104;-71
2023/03/07 11:32:51;;;;;;;1.33;0.63;;;;;;;;;;4992073;28;20042;-71
2023/03/07 11:35:30;;;;;;;5.88;1.00;;;;;;;;;;5012774;28;20040;-70
2023/03/07 11:38:07;;;;;;;4.18;1.27;;;;;;;;;;5029238;28;20113;-70
2023/03/07 11:40:49;;;;;;;6.82;0.80;;;;;;;;;;5013651;28;20030;-72
2023/03/07 11:43:22;;;;;;;3.55;1.02;;;;;;;;;;5008630;28;20042;-72
2023/03/07 11:46:06;;;;;;;3.25;0.77;;;;;;;;;;5009553;28;20057;-71
2023/03/07 11:48:58;;;;;;;2.33;0.88;;;;;;;;;;5006912;28;20385;-71
2023/03/07 11:51:26;;;;;;;7.65;1.70;;;;;;;;;;5005962;28;20026;-71
2023/03/07 11:54:11;;;;;;;1.20;0.77;;;;;;;;;;5011157;28;20081;-72
2023/03/07 11:56:43;;;;;;;1.95;0.88;;;;;;;;;;5008434;28;20511;-71
2023/03/07 11:59:15;;;;;;;1.05;0.50;;;;;;;;;;5005524;28;20551;-71
2023/03/07 12:01:58;;;;;;;0.85;0.50;;;;;;;;;;5010503;28;20033;-72
2023/03/07 12:04:47;;;;;;;2.35;1.20;;;;;;;;;;5007850;28;20030;-71
2023/03/07 12:07:44;;;;;;;4.63;0.80;;;;;;;;;;5013647;28;20038;-71
2023/03/07 12:10:35;;;;;;;2.03;0.80;;;;;;;;;;5015087;28;20045;-71
2023/03/07 12:13:16;;;;;;;3.58;0.95;;;;;;;;;;5032954;28;20049;-71
2023/03/07 12:16:22;;;;;;;2.50;1.08;;;;;;;;;;5016161;28;20152;-71
2023/03/07 12:19:08;;;;;;;2.47;1.00;;;;;;;;;;5032842;28;20454;-71
2023/03/07 12:22:00;;;;;;;4.47;2.03;;;;;;;;;;5033669;28;20083;-72
2023/03/07 12:24:45;;;;;;;2.35;1.15;;;;;;;;;;5016195;28;20479;-72
2023/03/07 12:27:17;;;;;;;4.88;0.80;;;;;;;;;;5012457;28;20032;-72
2023/03/07 12:29:49;;;;;;;1.98;1.00;;;;;;;;;;5001602;28;20097;-72
2023/03/07 12:32:22;;;;;;;3.17;1.00;;;;;;;;;;5015151;28;20072;-72
2023/03/07 12:35:29;;;;;;;3.05;1.17;;;;;;;;;;5013139;28;20491;-72
2023/03/07 12:38:31;;;;;;;3.40;1.60;;;;;;;;;;5018903;28;20041;-72
2023/03/07 12:41:12;;;;;;;1.65;1.00;;;;;;;;;;5001966;28;20060;-73
2023/03/07 12:43:46;;;;;;;2.03;1.00;;;;;;;;;;5014254;28;20541;-72
2023/03/07 12:46:37;;;;;;;2.00;0.80;;;;;;;;;;4996529;28;20529;-74
2023/03/07 12:49:20;;;;;;;1.30;0.88;;;;;;;;;;4997072;28;20088;-71
2023/03/07 12:52:01;;;;;;;4.27;0.90;;;;;;;;;;5014756;28;20030;-72
2023/03/07 12:54:34;;;;;;;5.20;1.50;;;;;;;;;;5013089;28;20377;-72
2023/03/07 12:57:16;;;;;;;3.25;1.98;;;;;;;;;;5013857;28;20042;-72
2023/03/07 12:59:43;;;;;;;2.58;1.42;;;;;;;;;;4999073;28;20038;-72
2023/03/07 13:02:27;;;;;;;6.05;1.58;;;;;;;;;;5023283;28;20151;-72
2023/03/07 13:04:53;;;;;;;1.73;0.88;;;;;;;;;;5010256;28;20143;-71
2023/03/07 13:07:24;;;;;;;2.03;0.95;;;;;;;;;;5011791;28;20022;-71
2023/03/07 13:09:53;;;;;;;3.75;1.25;;;;;;;;;;5013544;28;20045;-71
2023/03/07 13:12:36;;;;;;;0.95;0.52;;;;;;;;;;5031679;28;20054;-73
2023/03/07 13:15:06;;;;;;;3.75;1.40;;;;;;;;;;5013507;28;20073;-71
2023/03/07 13:17:34;;;;;;;4.93;1.23;;;;;;;;;;5013786;28;20041;-73
2023/03/07 13:20:18;;;;;;;1.92;1.10;;;;;;;;;;5034179;28;20100;-73
2023/03/07 13:22:44;;;;;;;2.55;1.00;;;;;;;;;;5033487;28;20052;-72
2023/03/07 13:25:18;;;;;;;1.77;0.90;;;;;;;;;;5033651;28;20029;-71
2023/03/07 13:27:52;;;;;;;1.40;0.73;;;;;;;;;;5033307;28;20380;-72
2023/03/07 13:30:20;;;;;;;5.70;1.75;;;;;;;;;;5031826;28;20059;-71
2023/03/07 13:32:49;;;;;;;3.35;1.20;;;;;;;;;;5033330;28;20029;-71
2023/03/07 13:35:30;;;;;;;4.30;2.03;;;;;;;;;;5033004;28;20160;-72
2023/03/07 13:38:29;;;;;;;3.42;1.27;;;;;;;;;;5033595;28;20030;-72
2023/03/07 13:41:03;;;;;;;2.17;1.00;;;;;;;;;;5033198;28;20039;-72
2023/03/07 13:43:29;;;;;;;3.67;1.15;;;;;;;;;;5033510;28;20048;-72
2023/03/07 13:46:23;;;;;;;2.25;1.33;;;;;;;;;;5032926;28;20029;-71
2023/03/07 13:48:52;;;;;;;1.90;0.90;;;;;;;;;;5015374;28;20041;-72
2023/03/07 13:51:18;;;;;;;2.80;0.70;;;;;;;;;;5032971;28;20074;-72
2023/03/07 13:53:49;;;;;;;1.50;1.00;;;;;;;;;;5031223;28;20445;-71
2023/03/07 13:56:15;;;;;;;1.60;0.98;;;;;;;;;;5032623;28;20033;-71
2023/03/07 13:58:45;;;;;;;2.78;1.10;;;;;;;;;;5032550;28;20098;-74
2023/03/07 14:01:23;;;;;;;1.85;0.95;;;;;;;;;;5032669;28;20037;-72
2023/03/07 14:03:51;;;;;;;1.60;0.75;;;;;;;;;;5033182;28;20040;-72
2023/03/07 14:06:20;;;;;;;2.30;1.13;;;;;;;;;;5032532;28;20051;-74
2023/03/07 14:08:48;;;;;;;2.60;1.08;;;;;;;;;;5032246;28;20407;-73
2023/03/07 14:11:34;;;;;;;3.03;1.10;;;;;;;;;;5014436;28;20021;-72
2023/03/07 14:14:16;;;;;;;1.45;0.77;;;;;;;;;;5018458;28;20163;-72
2023/03/07 14:17:00;;;;;;;2.67;1.45;;;;;;;;;;5032256;28;20398;-72
2023/03/07 14:19:47;;;;;;;3.22;1.35;;;;;;;;;;5032433;28;20391;-73
2023/03/07 14:22:36;;;;;;;1.92;1.05;;;;;;;;;;5032190;28;20049;-72
2023/03/07 14:25:11;;;;;;;3.15;1.50;;;;;;;;;;5032391;28;20073;-72
2023/03/07 14:27:57;;;;;;;1.70;0.88;;;;;;;;;;5023207;28;20034;-72
2023/03/07 14:30:26;;;;;;;1.80;0.90;;;;;;;;;;5012062;28;20141;-72
2023/03/07 14:32:52;;;;;;;4.72;1.80;;;;;;;;;;5012246;28;20026;-72
2023/03/07 14:35:34;;;;;;;3.28;1.50;;;;;;;;;;5020539;28;20447;-71
2023/03/07 14:38:00;;;;;;;5.93;1.20;;;;;;;;;;5011687;28;20105;-71
2023/03/07 14:40:41;;;;;;;5.00;1.77;;;;;;;;;;5011854;28;20023;-72
2023/03/07 14:43:25;;;;;;;4.45;1.17;;;;;;;;;;5011777;28;20034;-73
2023/03/07 14:46:10;;;;;;;1.85;1.15;;;;;;;;;;5011810;28;20480;-74
2023/03/07 14:49:08;;;;;;;2.72;0.90;;;;;;;;;;5011902;28;20033;-72
2023/03/07 14:51:39;;;;;;;3.45;1.80;;;;;;;;;;5011913;28;20025;-73
2023/03/07 14:54:13;;;;;;;1.77;1.00;;;;;;;;;;5007921;28;20030;-72
2023/03/07 14:56:39;;;;;;;1.92;1.10;;;;;;;;;;5010798;28;20033;-72
2023/03/07 14:59:06;;;;;;;2.47;1.30;;;;;;;;;;5011017;28;20033;-72
2023/03/07 15:01:36;;;;;;;2.33;1.30;;;;;;;;;;5011782;28;20049;-71
2023/03/07 15:04:07;;;;;;;2.08;1.20;;;;;;;;;;5011751;28;20033;-72